Time;durP1;ratioP1;P1;durP2;ratioP2;P2;SDS_P1;SDS_P2;PMS_P1;PMS_P2;Temp;Humidity;BMP_temperature;BMP_pressure;BME280_temperature;BME280_humidity;BME280_pressure;Samples;Min_cycle;Max_cycle;Signal;HPM_P1;HPM_P2
2022/05/28 00:01:18;;;;;;;;;;;;;;;12.41;71.78;96303.16;6250120;28;19921;-68
2022/05/28 00:04:21;;;;;;;;;;;;;;;12.39;71.95;96309.50;6250323;28;19925;-67
2022/05/28 00:07:26;;;;;;;;;;;;;;;12.42;71.72;96299.53;6250157;28;19921;-68
2022/05/28 00:10:27;;;;;;;;;;;;;;;12.35;71.77;96315.03;6250143;28;20423;-68
2022/05/28 00:13:28;;;;;;;;;;;;;;;12.35;71.95;96308.91;6250191;28;19921;-67
2022/05/28 00:16:29;;;;;;;;;;;;;;;12.34;71.95;96317.78;6249965;28;20278;-67
2022/05/28 00:19:32;;;;;;;;;;;;;;;12.42;72.04;96307.44;6249960;28;19920;-67
2022/05/28 00:22:39;;;;;;;;;;;;;;;12.34;72.83;96313.38;6249904;28;20311;-67
2022/05/28 00:25:42;;;;;;;;;;;;;;;12.39;72.45;96312.97;6249874;28;19921;-67
2022/05/28 00:28:46;;;;;;;;;;;;;;;12.30;72.74;96305.81;6249896;28;19920;-67
2022/05/28 00:31:49;;;;;;;;;;;;;;;12.30;73.15;96308.44;6249946;28;19927;-68
2022/05/28 00:34:53;;;;;;;;;;;;;;;12.36;72.90;96300.03;6249928;28;19921;-67
2022/05/28 00:37:57;;;;;;;;;;;;;;;12.35;72.56;96303.66;6249478;28;19943;-68
2022/05/28 00:41:03;;;;;;;;;;;;;;;12.46;72.60;96300.97;6248457;28;20020;-69
2022/05/28 00:44:05;;;;;;;;;;;;;;;12.46;72.26;96300.97;6249417;28;19921;-67
2022/05/28 00:47:07;;;;;;;;;;;;;;;12.58;71.92;96320.25;6249642;28;20009;-67
2022/05/28 00:50:09;;;;;;;;;;;;;;;12.70;71.50;96318.41;6249482;28;19921;-67
2022/05/28 00:53:13;;;;;;;;;;;;;;;12.64;71.53;96310.97;6249638;28;19921;-67
2022/05/28 00:56:14;;;;;;;;;;;;;;;12.49;72.21;96299.88;6249022;28;20419;-68
2022/05/28 00:59:15;;;;;;;;;;;;;;;12.55;72.21;96310.78;6249055;28;19975;-67
2022/05/28 01:02:19;;;;;;;;;;;;;;;12.42;72.83;96303.97;6249096;28;20376;-67
2022/05/28 01:05:47;;;;;;;;;;;;;;;12.44;72.24;96294.97;6247903;28;20427;-67
2022/05/28 01:08:58;;;;;;;;;;;;;;;12.40;72.62;96288.28;6247472;28;19921;-68
2022/05/28 01:12:24;;;;;;;;;;;;;;;12.35;72.75;96282.53;6248739;28;19921;-66
2022/05/28 01:15:35;;;;;;;;;;;;;;;12.20;73.47;96274.06;6247530;28;19925;-67
2022/05/28 01:18:43;;;;;;;;;;;;;;;12.24;73.27;96275.50;6248642;28;19917;-67
2022/05/28 01:21:53;;;;;;;;;;;;;;;12.28;73.35;96281.34;6248258;28;19928;-67
2022/05/28 01:24:54;;;;;;;;;;;;;;;12.32;73.06;96273.06;6248039;28;19920;-68
2022/05/28 01:28:04;;;;;;;;;;;;;;;12.41;73.23;96271.47;6248793;28;20023;-67
2022/05/28 01:31:06;;;;;;;;;;;;;;;12.27;73.47;96274.41;6248568;28;19964;-68
2022/05/28 01:34:10;;;;;;;;;;;;;;;12.18;74.50;96264.63;6248404;28;19924;-68
2022/05/28 01:37:14;;;;;;;;;;;;;;;12.10;74.42;96263.41;6248446;28;19928;-68
2022/05/28 01:40:17;;;;;;;;;;;;;;;12.26;74.37;96260.38;6247964;28;19917;-68
2022/05/28 01:43:21;;;;;;;;;;;;;;;12.18;74.44;96260.16;6247378;28;19921;-67
2022/05/28 01:46:27;;;;;;;;;;;;;;;12.35;74.02;96258.78;6248049;28;19944;-67
2022/05/28 01:49:31;;;;;;;;;;;;;;;12.35;74.22;96259.63;6248140;28;19943;-67
2022/05/28 01:52:38;;;;;;;;;;;;;;;12.38;74.14;96255.91;6247714;28;19921;-68
2022/05/28 01:55:43;;;;;;;;;;;;;;;12.34;74.00;96252.69;6247814;28;19925;-68
2022/05/28 01:58:45;;;;;;;;;;;;;;;12.43;74.04;96263.47;6247731;28;19967;-68
2022/05/28 02:01:46;;;;;;;;;;;;;;;12.47;73.89;96260.41;6247369;28;20308;-68
2022/05/28 02:04:50;;;;;;;;;;;;;;;12.64;73.90;96256.38;6247781;28;19921;-67
2022/05/28 02:07:51;;;;;;;;;;;;;;;12.76;73.12;96259.81;6247410;28;19917;-68
2022/05/28 02:10:56;;;;;;;;;;;;;;;12.74;73.79;96252.03;6248244;28;19928;-68
2022/05/28 02:14:14;;;;;;;;;;;;;;;12.83;73.10;96239.88;6229910;28;19921;-68
2022/05/28 02:17:33;;;;;;;;;;;;;;;13.01;72.45;96232.19;6247208;28;20320;-68
2022/05/28 02:20:36;;;;;;;;;;;;;;;12.94;72.65;96223.94;6247214;28;19917;-68
2022/05/28 02:23:44;;;;;;;;;;;;;;;13.06;72.88;96218.59;6247239;28;19921;-67
2022/05/28 02:26:53;;;;;;;;;;;;;;;13.14;72.17;96221.41;6247161;28;20399;-68
2022/05/28 02:29:54;;;;;;;;;;;;;;;12.91;73.11;96220.72;6247067;28;20406;-67
2022/05/28 02:33:01;;;;;;;;;;;;;;;13.13;72.46;96219.72;6247065;28;20383;-68
2022/05/28 02:36:03;;;;;;;;;;;;;;;13.10;72.81;96231.38;6246958;28;19927;-69
2022/05/28 02:39:04;;;;;;;;;;;;;;;13.08;72.89;96232.47;6246716;28;19956;-68
2022/05/28 02:42:07;;;;;;;;;;;;;;;13.13;73.01;96219.72;6246711;28;20312;-68
2022/05/28 02:45:11;;;;;;;;;;;;;;;13.24;72.47;96223.13;6246717;28;19928;-68
2022/05/28 02:48:12;;;;;;;;;;;;;;;13.09;72.86;96224.44;6246422;28;19944;-67
2022/05/28 02:51:16;;;;;;;;;;;;;;;13.25;72.61;96231.91;6246485;28;19968;-69
2022/05/28 02:54:17;;;;;;;;;;;;;;;13.54;71.39;96237.34;6246436;28;19928;-68
2022/05/28 02:57:20;;;;;;;;;;;;;;;13.59;71.05;96231.66;6246493;28;19921;-66
2022/05/28 03:00:24;;;;;;;;;;;;;;;13.61;71.36;96232.34;6246191;28;19921;-68
2022/05/28 03:03:28;;;;;;;;;;;;;;;13.75;70.66;96231.16;6246442;28;19960;-68
2022/05/28 03:06:31;;;;;;;;;;;;;;;13.86;70.01;96245.09;6246483;28;19921;-67
2022/05/28 03:09:35;;;;;;;;;;;;;;;13.87;69.91;96243.28;6246697;28;20003;-68
2022/05/28 03:12:39;;;;;;;;;;;;;;;13.86;70.00;96239.81;6246226;28;19920;-67
2022/05/28 03:15:43;;;;;;;;;;;;;;;13.63;71.02;96238.34;6246133;28;19921;-68
2022/05/28 03:18:44;;;;;;;;;;;;;;;13.63;71.12;96228.59;6246136;28;20414;-68
2022/05/28 03:21:45;;;;;;;;;;;;;;;13.42;71.97;96236.59;6245586;28;19925;-70
2022/05/28 03:24:49;;;;;;;;;;;;;;;13.24;73.28;96238.13;6245948;28;19921;-68
2022/05/28 03:27:50;;;;;;;;;;;;;;;13.11;74.45;96248.09;6245678;28;20031;-68
2022/05/28 03:30:51;;;;;;;;;;;;;;;13.03;75.53;96252.22;6244641;28;20004;-71
2022/05/28 03:33:52;;;;;;;;;;;;;;;12.50;77.14;96244.34;6245683;28;19925;-71
2022/05/28 03:36:56;;;;;;;;;;;;;;;12.29;78.54;96236.41;6246027;28;19921;-70
2022/05/28 03:40:00;;;;;;;;;;;;;;;12.18;79.69;96214.50;6246039;28;19921;-69
2022/05/28 03:43:02;;;;;;;;;;;;;;;12.29;80.47;96230.28;6245573;28;20422;-69
2022/05/28 03:46:04;;;;;;;;;;;;;;;12.03;81.33;96213.94;6245592;28;19921;-68
2022/05/28 03:49:27;;;;;;;;;;;;;;;12.10;82.46;96220.38;6245494;28;19921;-69
2022/05/28 03:52:29;;;;;;;;;;;;;;;12.16;82.62;96229.59;6245635;28;19928;-72
2022/05/28 03:55:30;;;;;;;;;;;;;;;12.33;83.09;96223.78;6245869;28;19954;-69
2022/05/28 03:58:34;;;;;;;;;;;;;;;12.47;82.87;96226.13;6245451;28;20067;-70
2022/05/28 04:01:38;;;;;;;;;;;;;;;12.66;83.07;96238.63;6245551;28;19928;-70
2022/05/28 04:04:39;;;;;;;;;;;;;;;12.76;82.40;96230.78;6245725;28;19921;-70
2022/05/28 04:07:43;;;;;;;;;;;;;;;12.75;82.40;96226.47;6245577;28;19943;-70
2022/05/28 04:10:47;;;;;;;;;;;;;;;13.01;82.14;96229.53;6244829;28;19928;-70
2022/05/28 04:13:48;;;;;;;;;;;;;;;13.02;81.59;96229.44;6244986;28;19928;-71
2022/05/28 04:16:49;;;;;;;;;;;;;;;13.20;81.43;96223.53;6244271;28;19921;-70
2022/05/28 04:19:55;;;;;;;;;;;;;;;13.17;81.31;96223.81;6245574;28;19917;-72
2022/05/28 04:22:56;;;;;;;;;;;;;;;13.44;79.82;96224.06;6245207;28;19920;-72
2022/05/28 04:25:57;;;;;;;;;;;;;;;13.41;79.82;96220.88;6245296;28;19927;-74
2022/05/28 04:28:58;;;;;;;;;;;;;;;13.90;76.47;96235.09;6245376;28;20395;-72
2022/05/28 04:31:59;;;;;;;;;;;;;;;13.92;74.33;96233.13;6245596;28;19928;-73
2022/05/28 04:35:00;;;;;;;;;;;;;;;13.89;73.00;96234.25;6244851;28;20319;-72
2022/05/28 04:38:06;;;;;;;;;;;;;;;14.18;72.19;96227.31;6245212;28;19921;-72
2022/05/28 04:41:08;;;;;;;;;;;;;;;15.57;67.91;96253.38;6249219;28;20384;-71
2022/05/28 04:44:09;;;;;;;;;;;;;;;17.40;61.08;96234.44;6249307;28;19928;-70
2022/05/28 04:47:12;;;;;;;;;;;;;;;17.63;57.21;96265.84;6248986;28;19920;-68
2022/05/28 04:50:16;;;;;;;;;;;;;;;19.22;55.51;96254.28;6248549;28;20066;-68
2022/05/28 04:53:23;;;;;;;;;;;;;;;21.83;50.59;96248.41;6249103;28;19920;-68
2022/05/28 04:56:26;;;;;;;;;;;;;;;23.65;41.38;96253.59;6249277;28;19921;-68
2022/05/28 04:59:30;;;;;;;;;;;;;;;24.28;41.14;96251.69;6249234;28;19921;-67
2022/05/28 05:02:33;;;;;;;;;;;;;;;23.81;38.48;96256.03;6248698;28;19921;-68
2022/05/28 05:05:34;;;;;;;;;;;;;;;23.86;38.06;96236.59;6248612;28;19921;-68
2022/05/28 05:08:36;;;;;;;;;;;;;;;25.41;34.72;96238.50;6247105;28;19921;-67
2022/05/28 05:11:37;;;;;;;;;;;;;;;27.41;30.63;96246.63;6248505;28;19935;-69
2022/05/28 05:14:38;;;;;;;;;;;;;;;27.71;30.00;96263.00;6248568;28;20122;-67
2022/05/28 05:17:41;;;;;;;;;;;;;;;28.18;29.45;96240.91;6248551;28;19920;-68
2022/05/28 05:20:47;;;;;;;;;;;;;;;29.80;26.24;96264.44;6248413;28;19917;-68
2022/05/28 05:23:48;;;;;;;;;;;;;;;30.45;24.54;96244.44;6248761;28;19921;-68
2022/05/28 05:26:51;;;;;;;;;;;;;;;29.19;25.75;96243.97;6248344;28;20055;-68
2022/05/28 05:29:56;;;;;;;;;;;;;;;29.14;26.47;96257.38;6248634;28;19928;-68
2022/05/28 05:32:57;;;;;;;;;;;;;;;29.35;25.90;96258.72;6248752;28;20012;-66
2022/05/28 05:36:00;;;;;;;;;;;;;;;26.45;29.22;96258.41;6249696;28;19921;-70
2022/05/28 05:39:06;;;;;;;;;;;;;;;23.98;33.12;96245.78;6248111;28;20419;-68
2022/05/28 05:42:07;;;;;;;;;;;;;;;24.70;32.22;96243.59;6248013;28;20392;-67
2022/05/28 05:45:09;;;;;;;;;;;;;;;25.07;31.20;96267.25;6247549;28;19921;-68
2022/05/28 05:48:12;;;;;;;;;;;;;;;23.46;33.08;96255.94;6247960;28;20388;-68
2022/05/28 05:51:16;;;;;;;;;;;;;;;21.34;37.36;96259.56;6247146;28;20031;-68
2022/05/28 05:54:20;;;;;;;;;;;;;;;20.66;39.00;96274.63;6247861;28;19921;-68
2022/05/28 05:57:24;;;;;;;;;;;;;;;19.98;40.36;96245.91;6247461;28;20023;-68
2022/05/28 06:00:27;;;;;;;;;;;;;;;19.29;41.74;96244.59;6247770;28;19921;-68
2022/05/28 06:03:29;;;;;;;;;;;;;;;19.69;40.74;96266.06;6247675;28;19925;-68
2022/05/28 06:06:30;;;;;;;;;;;;;;;20.56;39.84;96264.19;6247704;28;19979;-67
2022/05/28 06:09:34;;;;;;;;;;;;;;;24.83;33.48;96270.53;6247650;28;20019;-71
2022/05/28 06:12:36;;;;;;;;;;;;;;;29.00;28.17;96281.91;6246893;28;19928;-68
2022/05/28 06:15:41;;;;;;;;;;;;;;;32.24;21.83;96314.72;6246912;28;19921;-68
2022/05/28 06:18:45;;;;;;;;;;;;;;;32.47;20.08;96287.34;6246872;28;19920;-67
2022/05/28 06:21:51;;;;;;;;;;;;;;;31.60;21.62;96283.28;6246730;28;20304;-67
2022/05/28 06:24:55;;;;;;;;;;;;;;;32.83;20.09;96290.47;6247053;28;19921;-67
2022/05/28 06:28:00;;;;;;;;;;;;;;;33.99;17.83;96300.03;6247022;28;20387;-67
2022/05/28 06:31:05;;;;;;;;;;;;;;;34.24;17.91;96288.50;6246514;28;20515;-68
2022/05/28 06:34:09;;;;;;;;;;;;;;;35.07;16.93;96296.81;6246822;28;20356;-67
2022/05/28 06:37:12;;;;;;;;;;;;;;;34.98;16.96;96303.06;6246546;28;19928;-69
2022/05/28 06:40:13;;;;;;;;;;;;;;;35.00;17.17;96301.69;6246547;28;19921;-68
2022/05/28 06:43:17;;;;;;;;;;;;;;;35.40;16.17;96286.50;6246555;28;19921;-67
2022/05/28 06:46:18;;;;;;;;;;;;;;;34.61;17.38;96288.44;6245267;28;19975;-67
2022/05/28 06:49:19;;;;;;;;;;;;;;;35.73;16.77;96298.84;6246457;28;19992;-67
2022/05/28 06:52:24;;;;;;;;;;;;;;;37.14;15.46;96293.56;6246179;28;19936;-66
2022/05/28 06:55:27;;;;;;;;;;;;;;;37.59;15.76;96310.88;6246209;28;20333;-67
2022/05/28 06:58:31;;;;;;;;;;;;;;;37.94;14.38;96323.50;6246169;28;19921;-68
2022/05/28 07:01:32;;;;;;;;;;;;;;;35.41;15.59;96299.06;6245345;28;19933;-67
2022/05/28 07:04:36;;;;;;;;;;;;;;;36.14;15.22;96309.78;6245847;28;20464;-67
2022/05/28 07:07:40;;;;;;;;;;;;;;;37.56;13.73;96305.94;6246025;28;19921;-69
2022/05/28 07:10:46;;;;;;;;;;;;;;;38.12;14.08;96319.25;6245869;28;20400;-66
2022/05/28 07:13:47;;;;;;;;;;;;;;;40.04;12.54;96335.50;6245685;28;19921;-67
2022/05/28 07:16:48;;;;;;;;;;;;;;;40.93;11.92;96334.41;6245914;28;19930;-68
2022/05/28 07:19:50;;;;;;;;;;;;;;;41.14;11.38;96314.72;6245565;28;19948;-67
2022/05/28 07:22:51;;;;;;;;;;;;;;;40.78;11.92;96338.31;6245259;28;19944;-67
2022/05/28 07:26:06;;;;;;;;;;;;;;;37.17;13.85;96325.91;6245322;28;19928;-68
2022/05/28 07:29:08;;;;;;;;;;;;;;;33.60;16.40;96313.09;6246021;28;19921;-68
2022/05/28 07:32:12;;;;;;;;;;;;;;;36.26;14.50;96311.41;6245871;28;19925;-69
2022/05/28 07:35:16;;;;;;;;;;;;;;;39.58;11.79;96344.50;6245406;28;19939;-67
2022/05/28 07:38:20;;;;;;;;;;;;;;;40.32;10.90;96335.63;6245692;28;20396;-68
2022/05/28 07:41:25;;;;;;;;;;;;;;;40.91;10.11;96320.13;6245733;28;19921;-67
2022/05/28 07:44:29;;;;;;;;;;;;;;;40.85;10.55;96365.47;6245644;28;19928;-69
2022/05/28 07:47:51;;;;;;;;;;;;;;;40.09;10.67;96327.16;6245785;28;19920;-67
2022/05/28 07:50:55;;;;;;;;;;;;;;;39.17;11.24;96324.97;6245531;28;19921;-66
2022/05/28 07:53:56;;;;;;;;;;;;;;;39.87;10.90;96329.75;6245594;28;20015;-68
2022/05/28 07:57:00;;;;;;;;;;;;;;;40.44;10.97;96354.41;6245745;28;19928;-66
2022/05/28 08:00:03;;;;;;;;;;;;;;;40.17;10.74;96331.97;6245248;28;19924;-69
2022/05/28 08:03:05;;;;;;;;;;;;;;;38.65;11.84;96355.00;6245348;28;19955;-68
2022/05/28 08:06:06;;;;;;;;;;;;;;;37.06;12.82;96330.66;6244887;28;19921;-67
2022/05/28 08:09:08;;;;;;;;;;;;;;;37.93;12.10;96350.13;6245566;28;19920;-67
2022/05/28 08:12:12;;;;;;;;;;;;;;;38.72;12.16;96352.72;6245165;28;19925;-68
2022/05/28 08:15:15;;;;;;;;;;;;;;;38.44;12.01;96321.41;6250094;28;19921;-67
2022/05/28 08:18:19;;;;;;;;;;;;;;;37.57;12.03;96313.06;6250008;28;19917;-68
2022/05/28 08:24:43;;;;;;;;;;;;;;;37.38;13.05;96330.19;6249536;28;20376;-67
2022/05/28 08:27:47;;;;;;;;;;;;;;;37.26;12.48;96330.53;6249834;28;19921;-67
2022/05/28 08:30:48;;;;;;;;;;;;;;;37.57;12.42;96340.50;6249794;28;20015;-68
2022/05/28 08:33:54;;;;;;;;;;;;;;;35.86;13.24;96326.75;6249915;28;19932;-67
2022/05/28 08:36:56;;;;;;;;;;;;;;;35.45;14.06;96329.44;6249336;28;19927;-67
2022/05/28 08:39:59;;;;;;;;;;;;;;;36.04;13.75;96347.28;6249646;28;20020;-68
2022/05/28 08:43:04;;;;;;;;;;;;;;;35.08;14.24;96325.00;6249246;28;20008;-67
2022/05/28 08:46:07;;;;;;;;;;;;;;;34.14;15.01;96337.56;6249102;28;19921;-67
2022/05/28 08:49:14;;;;;;;;;;;;;;;33.48;15.62;96330.44;6249189;28;19952;-68
2022/05/28 08:52:26;;;;;;;;;;;;;;;34.11;15.21;96349.88;6249255;28;19921;-68
2022/05/28 08:55:28;;;;;;;;;;;;;;;34.03;15.16;96342.13;6249197;28;19920;-69
2022/05/28 08:58:32;;;;;;;;;;;;;;;32.78;16.03;96337.56;6248706;28;20323;-69
2022/05/28 09:01:40;;;;;;;;;;;;;;;31.96;17.55;96357.31;6248859;28;19920;-68
2022/05/28 09:04:44;;;;;;;;;;;;;;;31.30;17.60;96354.22;6248626;28;19920;-68
2022/05/28 09:07:47;;;;;;;;;;;;;;;32.90;16.61;96361.97;6248105;28;20379;-67
2022/05/28 09:10:49;;;;;;;;;;;;;;;35.39;15.17;96375.13;6248839;28;19994;-68
2022/05/28 09:13:55;;;;;;;;;;;;;;;37.18;12.92;96390.66;6247345;28;19920;-68
2022/05/28 09:17:06;;;;;;;;;;;;;;;36.53;12.85;96398.81;6248783;28;20007;-68
2022/05/28 09:20:20;;;;;;;;;;;;;;;33.69;15.10;96379.78;6248687;28;19927;-67
2022/05/28 09:23:23;;;;;;;;;;;;;;;33.66;15.22;96380.28;6248517;28;20015;-67
2022/05/28 09:26:45;;;;;;;;;;;;;;;33.14;15.51;96376.16;6247363;28;19925;-67
2022/05/28 09:29:46;;;;;;;;;;;;;;;33.87;15.00;96386.75;6263496;28;19925;-69
2022/05/28 09:32:50;;;;;;;;;;;;;;;33.41;15.34;96373.47;6248182;28;19960;-67
2022/05/28 09:36:04;;;;;;;;;;;;;;;33.93;15.21;96380.25;6248247;28;19921;-67
2022/05/28 09:39:27;;;;;;;;;;;;;;;35.24;14.23;96402.41;6248115;28;19921;-67
2022/05/28 09:42:37;;;;;;;;;;;;;;;34.58;14.65;96411.09;6248190;28;20020;-67
2022/05/28 09:45:43;;;;;;;;;;;;;;;33.12;16.05;96412.94;6247929;28;19920;-67
2022/05/28 09:48:47;;;;;;;;;;;;;;;32.11;16.69;96409.28;6247759;28;19921;-67
2022/05/28 09:51:58;;;;;;;;;;;;;;;30.47;18.43;96398.94;6247616;28;19920;-68
2022/05/28 09:55:12;;;;;;;;;;;;;;;28.58;20.34;96398.25;6247585;28;19921;-67
2022/05/28 09:58:17;;;;;;;;;;;;;;;27.16;22.36;96395.16;6247642;28;19920;-69
2022/05/28 10:01:25;;;;;;;;;;;;;;;28.94;20.39;96396.59;6247597;28;19921;-68
2022/05/28 10:04:30;;;;;;;;;;;;;;;30.59;18.53;96413.31;6246426;28;19925;-69
2022/05/28 10:07:35;;;;;;;;;;;;;;;30.09;19.54;96402.91;6247457;28;20383;-67
2022/05/28 10:10:38;;;;;;;;;;;;;;;29.88;19.61;96402.41;6247535;28;19920;-67
2022/05/28 10:13:50;;;;;;;;;;;;;;;30.07;19.32;96402.34;6247208;28;19921;-67
2022/05/28 10:17:01;;;;;;;;;;;;;;;30.52;19.45;96413.47;6247496;28;20396;-68
2022/05/28 10:20:04;;;;;;;;;;;;;;;29.90;19.04;96427.41;6247390;28;19928;-68
2022/05/28 10:23:13;;;;;;;;;;;;;;;29.62;19.56;96427.19;6246767;28;19921;-67
2022/05/28 10:26:17;;;;;;;;;;;;;;;28.13;20.90;96428.19;6247807;28;19951;-68
2022/05/28 10:29:23;;;;;;;;;;;;;;;26.46;22.95;96426.47;6246621;28;19920;-68
2022/05/28 10:32:30;;;;;;;;;;;;;;;25.19;24.70;96436.28;6246585;28;19925;-68
2022/05/28 10:35:34;;;;;;;;;;;;;;;24.88;25.50;96424.13;6246822;28;19921;-67
2022/05/28 10:38:38;;;;;;;;;;;;;;;25.31;24.62;96422.03;6246404;28;19920;-68
2022/05/28 10:41:42;;;;;;;;;;;;;;;25.13;25.00;96426.28;6247152;28;19971;-68
2022/05/28 10:44:43;;;;;;;;;;;;;;;24.41;25.87;96428.41;6246244;28;20330;-67
2022/05/28 10:47:57;;;;;;;;;;;;;;;25.50;24.93;96444.66;6246321;28;19928;-69
2022/05/28 10:51:29;;;;;;;;;;;;;;;25.43;24.41;96438.44;6246586;28;19921;-68
2022/05/28 10:54:59;;;;;;;;;;;;;;;25.01;24.58;96444.91;6244901;28;19927;-67
2022/05/28 10:58:17;;;;;;;;;;;;;;;24.61;25.28;96434.75;6243454;28;19943;-68
2022/05/28 11:01:39;;;;;;;;;;;;;;;25.79;23.94;96442.66;6246985;28;20316;-67
2022/05/28 11:04:42;;;;;;;;;;;;;;;25.66;24.11;96438.06;6246666;28;19928;-68
2022/05/28 11:07:43;;;;;;;;;;;;;;;26.01;23.84;96437.91;6246677;28;19921;-68
2022/05/28 11:11:01;;;;;;;;;;;;;;;26.21;23.85;96435.22;6246473;28;19921;-68
2022/05/28 11:14:04;;;;;;;;;;;;;;;26.11;24.11;96440.22;6245998;28;19921;-68
2022/05/28 11:17:22;;;;;;;;;;;;;;;26.06;24.11;96431.91;6246372;28;19928;-68
2022/05/28 11:20:29;;;;;;;;;;;;;;;26.49;23.47;96431.44;6246015;28;19956;-67
2022/05/28 11:23:30;;;;;;;;;;;;;;;26.82;23.03;96459.22;6246155;28;19921;-67
2022/05/28 11:26:51;;;;;;;;;;;;;;;26.85;22.72;96445.28;6246619;28;19921;-66
2022/05/28 11:30:07;;;;;;;;;;;;;;;26.73;22.38;96428.09;6245564;28;19921;-67
2022/05/28 11:33:19;;;;;;;;;;;;;;;26.16;23.39;96443.13;6246150;28;19925;-68
2022/05/28 11:36:27;;;;;;;;;;;;;;;26.53;23.41;96443.53;6246030;28;19920;-68
2022/05/28 11:39:39;;;;;;;;;;;;;;;27.02;22.70;96431.34;6245689;28;19936;-68
2022/05/28 11:42:47;;;;;;;;;;;;;;;27.66;22.05;96449.31;6246091;28;19921;-67
2022/05/28 11:46:07;;;;;;;;;;;;;;;27.24;21.86;96446.22;6245629;28;19921;-67
2022/05/28 11:52:50;;;;;;;;;;;;;;;25.74;23.41;96434.34;6250702;28;19920;-68
2022/05/28 11:55:58;;;;;;;;;;;;;;;26.15;22.80;96433.34;6250986;28;19921;-68
2022/05/28 11:59:11;;;;;;;;;;;;;;;25.80;23.03;96438.91;6250576;28;20470;-67
2022/05/28 12:02:17;;;;;;;;;;;;;;;25.77;22.47;96453.63;6249972;28;19925;-67
2022/05/28 12:05:23;;;;;;;;;;;;;;;25.53;22.95;96444.28;6250789;28;20303;-68
2022/05/28 12:08:39;;;;;;;;;;;;;;;25.59;23.05;96436.38;6250481;28;19921;-68
2022/05/28 12:11:45;;;;;;;;;;;;;;;25.60;23.14;96433.50;6250393;28;20295;-67
2022/05/28 12:14:49;;;;;;;;;;;;;;;26.01;22.68;96445.19;6250103;28;19928;-67
2022/05/28 12:18:08;;;;;;;;;;;;;;;26.01;23.37;96450.56;6250100;28;19948;-69
2022/05/28 12:21:23;;;;;;;;;;;;;;;25.74;23.42;96428.97;6249786;28;19927;-67
2022/05/28 12:24:27;;;;;;;;;;;;;;;26.06;23.12;96431.91;6249566;28;19925;-66
2022/05/28 12:27:36;;;;;;;;;;;;;;;26.24;22.76;96439.34;6249650;28;20059;-66
2022/05/28 12:30:45;;;;;;;;;;;;;;;25.97;23.05;96433.97;6250057;28;19920;-67
2022/05/28 12:33:50;;;;;;;;;;;;;;;25.59;23.50;96436.38;6249744;28;19921;-68
2022/05/28 12:36:53;;;;;;;;;;;;;;;25.27;24.27;96433.41;6249452;28;20396;-66
2022/05/28 12:40:09;;;;;;;;;;;;;;;25.12;24.35;96448.88;6249398;28;19921;-67
2022/05/28 12:43:12;;;;;;;;;;;;;;;24.78;24.71;96450.59;6249377;28;20550;-67
2022/05/28 12:46:16;;;;;;;;;;;;;;;24.35;25.13;96439.94;6249294;28;19920;-67
2022/05/28 12:49:20;;;;;;;;;;;;;;;24.06;25.58;96452.56;6249420;28;20311;-68
2022/05/28 12:52:26;;;;;;;;;;;;;;;23.88;25.98;96453.00;6249321;28;19920;-66
2022/05/28 12:55:32;;;;;;;;;;;;;;;23.60;26.24;96444.88;6249204;28;19921;-66
2022/05/28 12:58:36;;;;;;;;;;;;;;;23.66;25.78;96436.03;6248535;28;19927;-67
2022/05/28 13:01:47;;;;;;;;;;;;;;;23.52;25.67;96447.66;6248333;28;19921;-66
2022/05/28 13:04:51;;;;;;;;;;;;;;;23.53;25.23;96452.88;6248626;28;20273;-67
2022/05/28 13:07:54;;;;;;;;;;;;;;;22.91;25.99;96447.16;6248575;28;20316;-67
2022/05/28 13:10:59;;;;;;;;;;;;;;;23.00;25.98;96451.44;6247707;28;20281;-67
2022/05/28 13:14:06;;;;;;;;;;;;;;;22.66;26.34;96444.78;6248888;28;19920;-67
2022/05/28 13:17:22;;;;;;;;;;;;;;;22.47;26.56;96448.00;6247774;28;19974;-68
2022/05/28 13:20:46;;;;;;;;;;;;;;;22.84;26.24;96436.34;6248696;28;20312;-67
2022/05/28 13:24:08;;;;;;;;;;;;;;;22.04;27.19;96443.19;6248356;28;20292;-68
2022/05/28 13:27:36;;;;;;;;;;;;;;;21.73;28.04;96460.19;6248746;28;19920;-69
2022/05/28 13:30:41;;;;;;;;;;;;;;;22.38;27.06;96464.16;6247160;28;19921;-69
2022/05/28 13:33:42;;;;;;;;;;;;;;;22.81;26.37;96464.34;6248338;28;19928;-68
2022/05/28 13:36:43;;;;;;;;;;;;;;;22.90;26.15;96464.25;6246746;28;19943;-68
2022/05/28 13:39:51;;;;;;;;;;;;;;;22.72;26.58;96470.84;6248113;28;20419;-68
2022/05/28 13:42:58;;;;;;;;;;;;;;;22.83;26.54;96467.69;6247669;28;20363;-69
2022/05/28 13:46:04;;;;;;;;;;;;;;;22.46;27.08;96482.03;6248138;28;20308;-68
2022/05/28 13:49:08;;;;;;;;;;;;;;;22.54;27.09;96483.81;6247831;28;19916;-69
2022/05/28 13:52:13;;;;;;;;;;;;;;;22.50;27.48;96495.88;6247879;28;19921;-67
2022/05/28 13:55:22;;;;;;;;;;;;;;;22.38;27.47;96499.00;6248111;28;19935;-68
2022/05/28 13:58:25;;;;;;;;;;;;;;;22.15;27.90;96501.72;6247680;28;19921;-67
2022/05/28 14:01:31;;;;;;;;;;;;;;;22.28;27.91;96498.47;6246084;28;19925;-68
2022/05/28 14:04:41;;;;;;;;;;;;;;;22.05;28.17;96497.63;6247323;28;19925;-67
2022/05/28 14:07:42;;;;;;;;;;;;;;;21.92;28.44;96506.28;6247685;28;19920;-68
2022/05/28 14:10:44;;;;;;;;;;;;;;;21.85;28.05;96514.16;6247164;28;20023;-68
2022/05/28 14:13:52;;;;;;;;;;;;;;;21.58;28.43;96512.88;6247072;28;19920;-67
2022/05/28 14:16:58;;;;;;;;;;;;;;;21.53;28.53;96515.22;6247200;28;19928;-70
2022/05/28 14:20:00;;;;;;;;;;;;;;;22.13;27.89;96513.63;6247029;28;19928;-67
2022/05/28 14:23:04;;;;;;;;;;;;;;;22.65;26.65;96520.88;6247180;28;20316;-68
2022/05/28 14:26:11;;;;;;;;;;;;;;;22.71;26.40;96522.81;6247069;28;20296;-67
2022/05/28 14:29:15;;;;;;;;;;;;;;;22.31;26.75;96522.22;6247223;28;19959;-68
2022/05/28 14:32:29;;;;;;;;;;;;;;;21.93;27.26;96516.78;6246966;28;19920;-68
2022/05/28 14:35:36;;;;;;;;;;;;;;;22.05;27.46;96532.44;6246729;28;19921;-66
2022/05/28 14:38:38;;;;;;;;;;;;;;;22.12;27.56;96517.31;6246409;28;20319;-69
2022/05/28 14:41:52;;;;;;;;;;;;;;;21.43;28.54;96511.94;6246344;28;19921;-68
2022/05/28 14:44:55;;;;;;;;;;;;;;;21.17;29.11;96506.88;6246549;28;19920;-67
2022/05/28 14:48:00;;;;;;;;;;;;;;;20.78;29.65;96513.06;6246479;28;19921;-68
2022/05/28 14:51:03;;;;;;;;;;;;;;;20.92;29.74;96525.72;6246764;28;20312;-70
2022/05/28 14:54:16;;;;;;;;;;;;;;;20.81;30.38;96518.06;6246387;28;19921;-68
2022/05/28 14:57:40;;;;;;;;;;;;;;;20.56;30.72;96528.81;6246276;28;19921;-67
2022/05/28 15:00:43;;;;;;;;;;;;;;;20.37;31.12;96529.97;6245610;28;19920;-68
2022/05/28 15:03:45;;;;;;;;;;;;;;;20.07;31.36;96544.84;6246292;28;19921;-67
2022/05/28 15:06:46;;;;;;;;;;;;;;;19.92;31.65;96539.31;6245137;28;19928;-68
2022/05/28 15:09:48;;;;;;;;;;;;;;;20.08;31.71;96548.34;6246487;28;19917;-67
2022/05/28 15:12:51;;;;;;;;;;;;;;;19.77;32.04;96557.00;6246069;28;20000;-70
2022/05/28 15:15:56;;;;;;;;;;;;;;;19.57;32.83;96569.78;6246047;28;19921;-70
2022/05/28 15:18:59;;;;;;;;;;;;;;;19.64;32.89;96562.78;6246120;28;19920;-69
2022/05/28 15:22:23;;;;;;;;;;;;;;;19.27;33.09;96556.00;6245405;28;19921;-68
2022/05/28 15:25:28;;;;;;;;;;;;;;;19.28;33.67;96563.03;6245820;28;19925;-68
2022/05/28 15:28:32;;;;;;;;;;;;;;;19.20;33.80;96556.81;6245709;28;19925;-68
2022/05/28 15:31:34;;;;;;;;;;;;;;;19.11;34.44;96566.63;6245695;28;19921;-67
2022/05/28 15:34:37;;;;;;;;;;;;;;;18.98;34.92;96566.22;6245826;28;19921;-68
2022/05/28 15:37:52;;;;;;;;;;;;;;;18.71;35.44;96568.06;6246070;28;19921;-70
2022/05/28 15:41:04;;;;;;;;;;;;;;;18.50;35.70;96567.56;6246154;28;19921;-68
2022/05/28 15:44:09;;;;;;;;;;;;;;;18.36;36.13;96575.13;6246009;28;20336;-68
2022/05/28 15:47:10;;;;;;;;;;;;;;;18.16;36.59;96571.81;6245501;28;19928;-68
2022/05/28 15:50:12;;;;;;;;;;;;;;;18.28;36.26;96571.56;6246001;28;19952;-68
2022/05/28 15:53:15;;;;;;;;;;;;;;;18.14;36.11;96572.97;6245541;28;19928;-68
2022/05/28 15:56:16;;;;;;;;;;;;;;;18.00;36.62;96582.31;6245547;28;19921;-68
2022/05/28 15:59:19;;;;;;;;;;;;;;;17.89;36.85;96580.75;6245342;28;20395;-68
2022/05/28 16:02:26;;;;;;;;;;;;;;;17.90;36.80;96582.41;6245535;28;19921;-67
2022/05/28 16:05:37;;;;;;;;;;;;;;;17.80;37.13;96591.44;6245515;28;20396;-67
2022/05/28 16:08:44;;;;;;;;;;;;;;;17.68;37.22;96590.81;6245744;28;19921;-68
2022/05/28 16:11:50;;;;;;;;;;;;;;;17.54;37.53;96601.97;6245464;28;19920;-68
2022/05/28 16:14:53;;;;;;;;;;;;;;;17.36;37.93;96600.09;6245429;28;20384;-68